createdAt,value
2023-03-18T00:00:11.413Z,5.75
2023-03-18T00:02:40.338Z,5.75
2023-03-18T00:05:08.635Z,3.85
2023-03-18T00:07:36.328Z,3.17
2023-03-18T00:10:04.924Z,3.38
2023-03-18T00:12:33.184Z,7.47
2023-03-18T00:15:00.038Z,5.40
2023-03-18T00:17:26.605Z,2.88
2023-03-18T00:19:53.862Z,5.18
2023-03-18T00:22:20.462Z,3.75
2023-03-18T00:24:48.942Z,3.40
2023-03-18T00:27:15.667Z,3.75
2023-03-18T00:29:42.327Z,3.35
2023-03-18T00:32:09.120Z,3.08
2023-03-18T00:34:35.678Z,4.63
2023-03-18T00:37:02.349Z,3.45
2023-03-18T00:39:32.884Z,3.95
2023-03-18T00:42:01.981Z,2.83
2023-03-18T00:44:28.972Z,4.97
2023-03-18T00:46:55.599Z,3.53
2023-03-18T00:49:22.239Z,3.20
2023-03-18T00:51:48.935Z,3.88
2023-03-18T00:54:18.094Z,2.90
2023-03-18T00:56:45.091Z,3.60
2023-03-18T00:59:11.918Z,4.72
2023-03-18T01:01:39.677Z,4.18
2023-03-18T01:04:06.946Z,6.35
2023-03-18T01:06:35.380Z,6.28
2023-03-18T01:09:04.949Z,2.90
2023-03-18T01:11:31.883Z,6.35
2023-03-18T01:13:59.516Z,4.35
2023-03-18T01:16:27.360Z,4.40
2023-03-18T01:18:54.221Z,2.85
2023-03-18T01:21:21.080Z,4.93
2023-03-18T01:23:53.341Z,4.35
2023-03-18T01:26:20.045Z,3.50
2023-03-18T01:28:47.959Z,3.50
2023-03-18T01:31:15.416Z,3.25
2023-03-18T01:33:44.393Z,2.53
2023-03-18T01:36:12.000Z,4.88
2023-03-18T01:38:38.859Z,4.63
2023-03-18T01:41:11.864Z,3.33
2023-03-18T01:43:40.988Z,6.60
2023-03-18T01:46:32.756Z,4.60
2023-03-18T01:49:02.528Z,4.63
2023-03-18T01:51:29.289Z,3.33
2023-03-18T01:53:57.642Z,5.70
2023-03-18T01:56:24.506Z,5.75
2023-03-18T01:58:54.289Z,3.25
2023-03-18T02:01:47.484Z,3.33
2023-03-18T02:04:18.273Z,3.63
2023-03-18T02:06:45.562Z,2.92
2023-03-18T02:09:13.022Z,7.50
2023-03-18T02:11:43.860Z,4.15
2023-03-18T02:14:14.275Z,4.25
2023-03-18T02:16:47.129Z,3.92
2023-03-18T02:19:39.288Z,3.70
2023-03-18T02:22:08.885Z,3.25
2023-03-18T02:24:47.362Z,6.57
2023-03-18T02:27:26.592Z,6.45
2023-03-18T02:30:01.187Z,6.65
2023-03-18T02:32:33.346Z,4.90
2023-03-18T02:35:05.540Z,4.63
2023-03-18T02:37:33.467Z,3.67
2023-03-18T02:40:20.764Z,2.85
2023-03-18T02:42:48.598Z,5.15
2023-03-18T02:45:45.515Z,5.55
2023-03-18T02:48:17.765Z,3.70
2023-03-18T02:50:45.383Z,3.22
2023-03-18T02:53:13.708Z,3.67
2023-03-18T02:55:41.486Z,7.53
2023-03-18T02:58:09.207Z,4.03
2023-03-18T03:00:37.342Z,4.25
2023-03-18T03:03:05.202Z,3.00
2023-03-18T03:05:34.724Z,5.20
2023-03-18T03:08:02.415Z,2.92
2023-03-18T03:10:32.049Z,2.58
2023-03-18T03:13:00.109Z,3.35
2023-03-18T03:15:27.091Z,2.47
2023-03-18T03:17:57.441Z,3.83
2023-03-18T03:20:24.689Z,4.43
2023-03-18T03:22:51.448Z,3.55
2023-03-18T03:25:18.127Z,4.15
2023-03-18T03:27:44.645Z,3.78
2023-03-18T03:30:13.592Z,2.30
2023-03-18T03:32:42.075Z,6.70
2023-03-18T03:35:13.328Z,5.22
2023-03-18T03:37:40.501Z,3.03
2023-03-18T03:40:08.133Z,3.80
2023-03-18T03:42:34.744Z,3.05
2023-03-18T03:45:03.383Z,4.32
2023-03-18T03:47:29.921Z,6.63
2023-03-18T03:49:56.844Z,3.42
2023-03-18T03:52:24.019Z,4.68
2023-03-18T03:54:50.770Z,4.65
2023-03-18T03:57:18.206Z,3.35
2023-03-18T03:59:45.684Z,4.55
2023-03-18T04:02:19.186Z,2.88
2023-03-18T04:04:46.329Z,2.60
2023-03-18T04:07:22.735Z,4.00
2023-03-18T04:09:49.432Z,4.35
2023-03-18T04:12:18.288Z,3.13
2023-03-18T04:14:51.728Z,3.63
2023-03-18T04:17:19.490Z,2.42
2023-03-18T04:19:46.459Z,3.08
2023-03-18T04:22:13.167Z,4.90
2023-03-18T04:24:39.868Z,6.22
2023-03-18T04:27:06.789Z,3.35
2023-03-18T04:29:33.610Z,3.00
2023-03-18T04:32:01.719Z,4.68
2023-03-18T04:34:28.695Z,5.45
2023-03-18T04:36:55.790Z,3.15
2023-03-18T04:39:24.122Z,2.83
2023-03-18T04:41:50.977Z,1.98
2023-03-18T04:44:17.619Z,5.30
2023-03-18T04:46:50.538Z,3.35
2023-03-18T04:49:17.965Z,3.55
2023-03-18T04:51:46.291Z,3.53
2023-03-18T04:54:22.434Z,4.45
2023-03-18T04:56:52.140Z,2.92
2023-03-18T04:59:19.111Z,2.92
2023-03-18T05:01:47.139Z,5.07
2023-03-18T05:04:15.704Z,2.53
2023-03-18T05:06:50.709Z,5.40
2023-03-18T05:09:20.868Z,3.10
2023-03-18T05:11:47.611Z,3.30
2023-03-18T05:14:32.933Z,4.00
2023-03-18T05:17:00.561Z,5.20
2023-03-18T05:19:28.770Z,2.55
2023-03-18T05:22:02.209Z,2.67
2023-03-18T05:24:29.591Z,3.03
2023-03-18T05:26:56.233Z,4.50
2023-03-18T05:29:27.628Z,3.55
2023-03-18T05:32:08.785Z,2.65
2023-03-18T05:34:38.924Z,3.45
2023-03-18T05:37:10.050Z,3.85
2023-03-18T05:39:40.153Z,2.42
2023-03-18T05:42:11.398Z,3.88
2023-03-18T05:44:40.295Z,3.83
2023-03-18T05:47:10.014Z,4.13
2023-03-18T05:49:45.742Z,2.85
2023-03-18T05:52:18.595Z,3.20
2023-03-18T05:54:48.217Z,3.13
2023-03-18T05:57:20.141Z,2.60
2023-03-18T05:59:47.357Z,3.15
2023-03-18T06:02:15.307Z,3.40
2023-03-18T06:04:44.380Z,3.55
2023-03-18T06:07:12.213Z,2.40
2023-03-18T06:09:39.658Z,2.45
2023-03-18T06:12:07.221Z,4.65
2023-03-18T06:14:33.866Z,5.20
2023-03-18T06:17:02.207Z,3.65
2023-03-18T06:19:30.690Z,4.50
2023-03-18T06:21:58.778Z,6.30
2023-03-18T06:24:25.427Z,3.13
2023-03-18T06:26:52.461Z,4.10
2023-03-18T06:29:20.024Z,6.60
2023-03-18T06:31:46.711Z,4.80
2023-03-18T06:34:19.169Z,2.40
2023-03-18T06:36:46.108Z,3.97
2023-03-18T06:39:16.523Z,2.85
2023-03-18T06:41:43.649Z,3.53
2023-03-18T06:44:27.801Z,3.03
2023-03-18T06:46:59.287Z,3.00
2023-03-18T06:49:27.522Z,2.38
2023-03-18T06:52:04.258Z,4.30
2023-03-18T06:54:31.564Z,2.42
2023-03-18T06:57:01.542Z,2.25
2023-03-18T06:59:28.311Z,3.85
2023-03-18T07:01:55.221Z,4.13
2023-03-18T07:04:23.810Z,1.48
2023-03-18T07:06:52.519Z,2.28
2023-03-18T07:09:19.469Z,3.15
2023-03-18T07:11:51.390Z,2.85
2023-03-18T07:14:21.429Z,2.42
2023-03-18T07:16:47.964Z,3.20
2023-03-18T07:19:16.157Z,3.10
2023-03-18T07:21:43.793Z,2.47
2023-03-18T07:24:11.305Z,2.88
2023-03-18T07:26:38.344Z,2.17
2023-03-18T07:29:09.459Z,3.17
2023-03-18T07:31:37.032Z,1.70
2023-03-18T07:34:04.796Z,2.47
2023-03-18T07:36:31.834Z,5.13
2023-03-18T07:38:59.915Z,6.25
2023-03-18T07:41:26.658Z,2.20
2023-03-18T07:43:53.652Z,4.93
2023-03-18T07:46:20.463Z,3.30
2023-03-18T07:48:47.975Z,2.38
2023-03-18T07:51:15.588Z,3.05
2023-03-18T07:53:43.124Z,4.03
2023-03-18T07:56:12.523Z,3.90
2023-03-18T07:58:39.163Z,5.85
2023-03-18T08:01:06.152Z,2.45
2023-03-18T08:03:32.731Z,3.40
2023-03-18T08:05:59.488Z,5.88
2023-03-18T08:08:26.016Z,3.08
2023-03-18T08:10:56.945Z,3.92
2023-03-18T08:13:23.785Z,5.47
2023-03-18T08:15:50.273Z,5.25
2023-03-18T08:18:16.813Z,2.53
2023-03-18T08:20:43.305Z,3.33
2023-03-18T08:23:09.937Z,3.25
2023-03-18T08:25:36.770Z,3.08
2023-03-18T08:28:03.508Z,2.58
2023-03-18T08:30:30.503Z,4.70
2023-03-18T08:32:57.329Z,3.13
2023-03-18T08:35:23.923Z,5.43
2023-03-18T08:37:51.554Z,5.72
2023-03-18T08:40:18.397Z,4.97
2023-03-18T08:42:45.270Z,2.60
2023-03-18T08:45:12.555Z,3.65
2023-03-18T08:47:39.702Z,3.08
2023-03-18T08:50:06.574Z,1.90
2023-03-18T08:52:33.530Z,3.20
2023-03-18T08:55:00.234Z,3.30
2023-03-18T08:57:27.942Z,1.85
2023-03-18T08:59:54.627Z,1.98
2023-03-18T09:02:21.595Z,1.73
2023-03-18T09:04:48.308Z,3.08
2023-03-18T09:07:15.101Z,4.20
2023-03-18T09:09:44.385Z,3.53
2023-03-18T09:12:12.533Z,3.47
2023-03-18T09:14:40.447Z,3.60
2023-03-18T09:17:07.157Z,2.45
2023-03-18T09:19:33.621Z,2.90
2023-03-18T09:22:00.107Z,2.83
2023-03-18T09:24:26.913Z,6.38
2023-03-18T09:26:53.422Z,3.03
2023-03-18T09:29:20.542Z,4.20
2023-03-18T09:31:47.094Z,4.43
2023-03-18T09:34:14.468Z,3.95
2023-03-18T09:36:42.120Z,3.40
2023-03-18T09:39:08.898Z,2.28
2023-03-18T09:42:15.866Z,4.13
2023-03-18T09:44:43.575Z,4.75
2023-03-18T09:47:25.607Z,2.53
2023-03-18T09:50:08.373Z,1.77
2023-03-18T09:52:42.060Z,3.83
2023-03-18T09:57:42.688Z,2.90
2023-03-18T10:00:18.796Z,1.73
2023-03-18T10:02:50.472Z,3.88
2023-03-18T10:05:32.759Z,5.10
2023-03-18T10:08:07.406Z,3.28
2023-03-18T10:10:40.590Z,3.85
2023-03-18T10:13:18.322Z,2.70
2023-03-18T10:15:57.535Z,3.30
2023-03-18T10:18:38.071Z,3.42
2023-03-18T10:21:15.644Z,3.92
2023-03-18T10:24:00.743Z,5.95
2023-03-18T10:26:39.136Z,3.85
2023-03-18T10:29:23.077Z,3.75
2023-03-18T10:34:55.798Z,3.05
2023-03-18T10:37:42.407Z,3.78
2023-03-18T10:40:14.103Z,4.20
2023-03-18T10:42:41.632Z,3.42
2023-03-18T10:45:13.856Z,4.35
2023-03-18T10:47:43.277Z,3.80
2023-03-18T10:51:05.041Z,4.30
2023-03-18T10:53:38.990Z,3.05
2023-03-18T10:56:10.613Z,3.63
2023-03-18T10:58:41.212Z,4.68
2023-03-18T11:01:10.248Z,3.35
2023-03-18T11:03:51.785Z,4.18
2023-03-18T11:06:25.234Z,2.42
2023-03-18T11:09:02.868Z,3.50
2023-03-18T11:11:35.483Z,2.72
2023-03-18T11:14:04.724Z,4.05
2023-03-18T11:16:59.692Z,3.03
2023-03-18T11:19:41.684Z,2.75
2023-03-18T11:22:21.473Z,4.93
2023-03-18T11:25:03.056Z,2.60
2023-03-18T11:27:43.194Z,3.13
2023-03-18T11:30:33.541Z,3.30
2023-03-18T11:33:10.943Z,4.60
2023-03-18T11:35:45.556Z,4.03
2023-03-18T11:38:18.754Z,3.10
2023-03-18T11:40:46.317Z,5.20
2023-03-18T11:43:20.080Z,3.20
2023-03-18T11:48:41.152Z,3.55
2023-03-18T11:51:44.586Z,5.18
2023-03-18T11:54:40.282Z,3.47
2023-03-18T11:57:42.678Z,3.90
2023-03-18T12:00:37.689Z,1.85
2023-03-18T12:03:31.727Z,5.82
2023-03-18T12:05:58.442Z,5.68
2023-03-18T12:08:34.890Z,1.55
2023-03-18T12:11:16.196Z,3.58
2023-03-18T12:14:03.847Z,1.90
2023-03-18T12:16:45.485Z,4.03
2023-03-18T12:19:27.250Z,2.50
2023-03-18T12:22:16.227Z,4.05
2023-03-18T12:25:07.392Z,4.10
2023-03-18T12:28:24.711Z,3.00
2023-03-18T12:31:25.027Z,3.35
2023-03-18T12:33:51.545Z,4.43
2023-03-18T12:36:44.384Z,3.58
2023-03-18T12:39:14.587Z,5.97
2023-03-18T12:41:50.347Z,2.40
2023-03-18T12:44:27.768Z,3.20
2023-03-18T12:47:06.635Z,3.80
2023-03-18T12:49:38.870Z,4.95
2023-03-18T12:52:09.652Z,3.22
2023-03-18T12:54:49.100Z,1.90
2023-03-18T12:57:25.461Z,6.05
2023-03-18T13:00:01.853Z,2.50
2023-03-18T13:02:37.265Z,3.42
2023-03-18T13:05:14.003Z,4.65
2023-03-18T13:07:49.496Z,3.13
2023-03-18T13:10:20.598Z,4.00
2023-03-18T13:12:49.517Z,2.53
2023-03-18T13:15:34.561Z,5.50
2023-03-18T13:18:12.476Z,3.45
2023-03-18T13:20:39.866Z,5.10
2023-03-18T13:23:18.632Z,3.85
2023-03-18T13:25:51.373Z,2.15
2023-03-18T13:28:21.222Z,4.22
2023-03-18T13:31:05.901Z,1.80
2023-03-18T13:33:49.669Z,2.13
2023-03-18T13:39:06.885Z,6.63
2023-03-18T13:42:04.183Z,4.68
2023-03-18T13:44:57.722Z,4.13
2023-03-18T13:47:28.936Z,4.68
2023-03-18T13:50:22.838Z,3.33
2023-03-18T13:52:55.376Z,6.10
2023-03-18T13:55:41.190Z,4.10
2023-03-18T13:58:18.168Z,5.63
2023-03-18T14:01:09.333Z,6.05
2023-03-18T14:03:41.891Z,3.55
2023-03-18T14:06:11.268Z,2.72
2023-03-18T14:08:44.155Z,2.28
2023-03-18T14:11:16.896Z,3.42
2023-03-18T14:13:44.734Z,3.95
2023-03-18T14:16:14.665Z,3.10
2023-03-18T14:18:41.386Z,4.40
2023-03-18T14:21:23.741Z,2.00
2023-03-18T14:24:12.499Z,3.03
2023-03-18T14:26:39.562Z,3.88
2023-03-18T14:29:05.992Z,2.25
2023-03-18T14:31:38.597Z,1.98
2023-03-18T14:34:24.535Z,3.87
2023-03-18T14:36:54.178Z,2.65
2023-03-18T14:39:29.817Z,5.82
2023-03-18T14:41:59.433Z,2.38
2023-03-18T14:44:42.853Z,3.42
2023-03-18T14:47:35.659Z,4.07
2023-03-18T14:50:14.425Z,3.58
2023-03-18T14:52:43.716Z,3.22
2023-03-18T14:55:18.661Z,4.93
2023-03-18T14:57:45.266Z,3.88
2023-03-18T15:00:21.652Z,6.75
2023-03-18T15:03:00.645Z,1.45
2023-03-18T15:05:34.132Z,3.10
2023-03-18T15:08:01.251Z,3.35
2023-03-18T15:10:31.475Z,2.13
2023-03-18T15:13:04.522Z,4.38
2023-03-18T15:15:32.125Z,3.72
2023-03-18T15:18:06.810Z,2.25
2023-03-18T15:20:36.167Z,2.58
2023-03-18T15:23:06.068Z,3.63
2023-03-18T15:25:32.875Z,4.90
2023-03-18T15:28:00.658Z,3.20
2023-03-18T15:30:33.682Z,3.45
2023-03-18T15:33:16.884Z,2.75
2023-03-18T15:35:44.604Z,6.55
2023-03-18T15:38:16.605Z,3.28
2023-03-18T15:40:50.177Z,3.53
2023-03-18T15:45:55.890Z,3.67
2023-03-18T15:48:29.646Z,5.22
2023-03-18T15:51:02.458Z,6.32
2023-03-18T15:53:44.787Z,3.95
2023-03-18T15:56:23.920Z,2.53
2023-03-18T15:59:06.989Z,5.22
2023-03-18T16:01:35.274Z,1.33
2023-03-18T16:04:04.945Z,2.17
2023-03-18T16:06:34.400Z,4.93
2023-03-18T16:09:01.898Z,2.17
2023-03-18T16:11:28.824Z,3.25
2023-03-18T16:13:55.711Z,6.45
2023-03-18T16:16:27.866Z,3.00
2023-03-18T16:18:57.235Z,6.45
2023-03-18T16:21:24.076Z,7.18
2023-03-18T16:23:51.547Z,2.67
2023-03-18T16:26:18.899Z,5.32
2023-03-18T16:28:47.906Z,3.05
2023-03-18T16:31:15.358Z,2.55
2023-03-18T16:33:42.562Z,4.70
2023-03-18T16:36:21.601Z,4.65
2023-03-18T16:38:48.170Z,3.92
2023-03-18T16:41:14.806Z,4.82
2023-03-18T16:43:41.934Z,2.55
2023-03-18T16:46:13.179Z,8.60
2023-03-18T16:48:39.871Z,2.50
2023-03-18T16:51:06.518Z,3.42
2023-03-18T16:53:33.274Z,3.42
2023-03-18T16:56:20.702Z,3.83
2023-03-18T16:58:47.497Z,2.53
2023-03-18T17:01:16.515Z,5.00
2023-03-18T17:03:44.183Z,4.70
2023-03-18T17:06:10.778Z,4.38
2023-03-18T17:08:37.828Z,4.00
2023-03-18T17:11:04.858Z,6.57
2023-03-18T17:13:35.045Z,4.28
2023-03-18T17:16:01.767Z,3.38
2023-03-18T17:18:28.388Z,3.05
2023-03-18T17:20:55.270Z,4.80
2023-03-18T17:23:25.237Z,4.78
2023-03-18T17:25:58.067Z,7.90
2023-03-18T17:28:28.481Z,5.10
2023-03-18T17:30:55.053Z,6.05
2023-03-18T17:33:27.590Z,6.10
2023-03-18T17:35:55.001Z,4.60
2023-03-18T17:38:22.176Z,3.88
2023-03-18T17:40:50.049Z,8.32
2023-03-18T17:43:21.377Z,7.97
2023-03-18T17:45:48.186Z,8.13
2023-03-18T17:48:14.964Z,7.35
2023-03-18T17:50:44.188Z,8.48
2023-03-18T17:53:32.153Z,7.45
2023-03-18T17:55:59.184Z,7.50
2023-03-18T17:58:28.804Z,7.15
2023-03-18T18:01:02.514Z,8.75
2023-03-18T18:05:58.408Z,6.85
2023-03-18T18:08:25.614Z,8.57
2023-03-18T18:10:54.495Z,8.27
2023-03-18T18:13:22.794Z,7.10
2023-03-18T18:15:50.981Z,6.05
2023-03-18T18:18:25.787Z,7.60
2023-03-18T18:20:58.293Z,7.63
2023-03-18T18:23:29.157Z,6.70
2023-03-18T18:25:57.963Z,7.07
2023-03-18T18:28:29.699Z,7.38
2023-03-18T18:30:56.317Z,7.00
2023-03-18T18:33:22.853Z,3.88
2023-03-18T18:35:49.486Z,6.78
2023-03-18T18:38:17.098Z,6.75
2023-03-18T18:40:43.713Z,7.93
2023-03-18T18:43:11.016Z,16.23
2023-03-18T18:45:38.048Z,15.88
2023-03-18T18:48:32.683Z,9.15
2023-03-18T18:51:00.854Z,12.68
2023-03-18T18:53:33.738Z,8.25
2023-03-18T18:56:02.577Z,15.68
2023-03-18T18:58:31.416Z,12.40
2023-03-18T19:00:59.840Z,10.82
2023-03-18T19:03:31.222Z,8.60
2023-03-18T19:05:59.905Z,10.15
2023-03-18T19:08:36.119Z,11.32
2023-03-18T19:11:05.622Z,8.75
2023-03-18T19:13:34.674Z,8.27
2023-03-18T19:16:04.483Z,6.95
2023-03-18T19:18:37.690Z,8.82
2023-03-18T19:21:04.679Z,8.43
2023-03-18T19:23:35.613Z,8.07
2023-03-18T19:26:04.214Z,8.77
2023-03-18T19:28:58.583Z,9.95
2023-03-18T19:31:30.188Z,12.63
2023-03-18T19:33:58.889Z,9.75
2023-03-18T19:36:31.428Z,10.90
2023-03-18T19:39:00.240Z,11.40
2023-03-18T19:41:27.142Z,11.80
2023-03-18T19:43:58.004Z,12.98
2023-03-18T19:46:31.535Z,14.93
2023-03-18T19:48:58.045Z,14.35
2023-03-18T19:51:24.512Z,12.02
2023-03-18T19:53:51.087Z,11.27
2023-03-18T19:56:24.354Z,11.55
2023-03-18T19:58:53.266Z,9.20
2023-03-18T20:01:22.105Z,10.60
2023-03-18T20:03:52.237Z,9.55
2023-03-18T20:06:18.789Z,6.50
2023-03-18T20:08:45.368Z,5.78
2023-03-18T20:11:17.239Z,20.63
2023-03-18T20:13:44.412Z,14.93
2023-03-18T20:16:15.389Z,8.65
2023-03-18T20:18:43.941Z,11.70
2023-03-18T20:21:27.919Z,8.82
2023-03-18T20:23:58.593Z,7.65
2023-03-18T20:26:25.298Z,4.93
2023-03-18T20:28:55.470Z,8.07
2023-03-18T20:31:22.137Z,5.45
2023-03-18T20:33:48.722Z,11.90
2023-03-18T20:36:16.871Z,6.82
2023-03-18T20:38:47.101Z,9.55
2023-03-18T20:41:18.459Z,11.50
2023-03-18T20:43:45.721Z,8.90
2023-03-18T20:46:14.227Z,11.90
2023-03-18T20:48:41.781Z,19.52
2023-03-18T20:51:21.540Z,12.10
2023-03-18T20:53:49.442Z,10.90
2023-03-18T20:56:16.383Z,8.65
2023-03-18T20:58:43.272Z,8.45
2023-03-18T21:01:13.763Z,10.15
2023-03-18T21:03:40.939Z,9.13
2023-03-18T21:06:13.943Z,7.53
2023-03-18T21:08:41.449Z,12.20
2023-03-18T21:11:38.003Z,11.75
2023-03-18T21:14:04.684Z,10.55
2023-03-18T21:16:32.831Z,7.35
2023-03-18T21:18:59.913Z,8.85
2023-03-18T21:21:26.567Z,9.73
2023-03-18T21:23:54.030Z,9.10
2023-03-18T21:26:22.507Z,9.60
2023-03-18T21:28:50.197Z,13.15
2023-03-18T21:31:24.547Z,11.88
2023-03-18T21:33:52.757Z,9.90
2023-03-18T21:36:20.538Z,12.40
2023-03-18T21:38:47.418Z,12.23
2023-03-18T21:41:23.572Z,12.15
2023-03-18T21:43:50.470Z,9.88
2023-03-18T21:46:19.957Z,13.85
2023-03-18T21:48:46.835Z,10.18
2023-03-18T21:51:37.229Z,13.77
2023-03-18T21:54:05.119Z,9.63
2023-03-18T21:56:31.666Z,9.40
2023-03-18T21:58:58.355Z,12.00
2023-03-18T22:01:30.782Z,6.85
2023-03-18T22:03:58.023Z,9.32
2023-03-18T22:06:25.003Z,13.32
2023-03-18T22:08:52.084Z,7.40
2023-03-18T22:11:21.880Z,5.05
2023-03-18T22:13:49.558Z,8.27
2023-03-18T22:16:18.705Z,8.90
2023-03-18T22:18:47.252Z,9.63
2023-03-18T22:21:25.206Z,6.85
2023-03-18T22:23:52.511Z,9.80
2023-03-18T22:26:20.932Z,7.57
2023-03-18T22:28:49.712Z,5.65
2023-03-18T22:31:22.815Z,9.55
2023-03-18T22:33:49.446Z,10.68
2023-03-18T22:36:17.538Z,5.05
2023-03-18T22:38:45.065Z,10.20
2023-03-18T22:41:20.272Z,5.88
2023-03-18T22:43:47.632Z,10.70
2023-03-18T22:46:14.238Z,7.45
2023-03-18T22:48:40.969Z,11.55
2023-03-18T22:51:07.989Z,8.32
2023-03-18T22:53:38.091Z,10.23
2023-03-18T22:56:11.294Z,10.10
2023-03-18T22:58:38.604Z,9.50
2023-03-18T23:01:05.552Z,8.18
2023-03-18T23:03:40.316Z,10.00
2023-03-18T23:06:07.854Z,9.18
2023-03-18T23:08:34.405Z,7.70
2023-03-18T23:11:01.720Z,7.95
2023-03-18T23:13:43.221Z,8.63
2023-03-18T23:16:20.122Z,12.05
2023-03-18T23:18:48.254Z,8.68
2023-03-18T23:21:23.111Z,8.07
2023-03-18T23:23:49.967Z,7.15
2023-03-18T23:26:17.347Z,8.80
2023-03-18T23:28:45.223Z,5.88
2023-03-18T23:31:16.126Z,8.15
2023-03-18T23:33:43.115Z,6.38
2023-03-18T23:36:10.082Z,8.07
2023-03-18T23:38:37.768Z,9.45
2023-03-18T23:41:04.687Z,8.43
2023-03-18T23:43:31.259Z,8.23
2023-03-18T23:45:58.061Z,9.18
2023-03-18T23:48:24.815Z,9.63
2023-03-18T23:50:51.374Z,6.03
2023-03-18T23:53:18.058Z,6.30
2023-03-18T23:55:44.546Z,7.38
2023-03-18T23:58:11.561Z,11.30
